createdAt,value
2019-02-26T00:00:04.591Z,18.20
2019-02-26T00:01:04.584Z,18.00
2019-02-26T00:02:04.570Z,17.30
2019-02-26T00:03:04.819Z,17.60
2019-02-26T00:04:04.553Z,18.00
2019-02-26T00:05:04.540Z,18.30
2019-02-26T00:06:04.527Z,18.00
2019-02-26T00:07:04.525Z,17.80
2019-02-26T00:08:04.507Z,18.40
2019-02-26T00:09:04.500Z,17.90
2019-02-26T00:10:06.604Z,18.40
2019-02-26T00:11:06.711Z,18.50
2019-02-26T00:12:04.465Z,19.70
2019-02-26T00:13:04.456Z,18.50
2019-02-26T00:14:04.442Z,18.40
2019-02-26T00:15:04.433Z,18.10
2019-02-26T00:16:07.585Z,18.50
2019-02-26T00:17:08.685Z,18.90
2019-02-26T00:18:07.522Z,18.00
2019-02-26T00:19:05.027Z,18.20
2019-02-26T00:20:05.755Z,19.40
2019-02-26T00:21:04.997Z,18.50
2019-02-26T00:22:04.361Z,18.10
2019-02-26T00:23:04.465Z,18.00
2019-02-26T00:24:05.034Z,18.80
2019-02-26T00:25:06.256Z,18.50
2019-02-26T00:26:04.317Z,18.50
2019-02-26T00:27:05.497Z,19.10
2019-02-26T00:28:04.295Z,18.90
2019-02-26T00:29:06.171Z,18.50
2019-02-26T00:30:04.272Z,18.90
2019-02-26T00:31:06.020Z,19.20
2019-02-26T00:32:04.251Z,18.00
2019-02-26T00:33:05.256Z,18.10
2019-02-26T00:34:05.819Z,18.90
2019-02-26T00:35:04.371Z,19.00
2019-02-26T00:36:04.851Z,18.60
2019-02-26T00:37:06.152Z,18.70
2019-02-26T00:38:04.193Z,18.20
2019-02-26T00:39:05.159Z,18.70
2019-02-26T00:40:04.171Z,18.30
2019-02-26T00:41:05.959Z,17.90
2019-02-26T00:42:05.275Z,17.90
2019-02-26T00:43:04.765Z,18.20
2019-02-26T00:44:04.853Z,17.50
2019-02-26T00:45:07.413Z,17.60
2019-02-26T00:46:05.686Z,17.40
2019-02-26T00:47:04.971Z,16.90
2019-02-26T00:48:04.080Z,17.30
2019-02-26T00:49:05.885Z,17.30
2019-02-26T00:50:05.137Z,17.10
2019-02-26T00:51:04.049Z,17.00
2019-02-26T00:52:06.243Z,16.40
2019-02-26T00:53:04.075Z,17.00
2019-02-26T00:54:04.185Z,16.60
2019-02-26T00:55:05.386Z,16.50
2019-02-26T00:56:05.639Z,17.00
2019-02-26T00:57:05.903Z,14.90
2019-02-26T00:58:05.992Z,16.70
2019-02-26T00:59:03.967Z,15.60
2019-02-26T01:00:05.346Z,15.90
2019-02-26T01:01:03.943Z,15.40
2019-02-26T01:02:03.935Z,16.10
2019-02-26T01:03:05.744Z,16.10
2019-02-26T01:04:03.911Z,15.70
2019-02-26T01:05:04.491Z,15.60
2019-02-26T01:06:05.820Z,15.50
2019-02-26T01:07:05.472Z,16.60
2019-02-26T01:08:03.873Z,16.40
2019-02-26T01:09:06.057Z,15.70
2019-02-26T01:10:03.847Z,16.60
2019-02-26T01:11:05.926Z,16.40
2019-02-26T01:12:03.827Z,16.50
2019-02-26T01:13:05.150Z,15.40
2019-02-26T01:14:03.804Z,15.80
2019-02-26T01:15:04.962Z,16.00
2019-02-26T01:16:03.815Z,15.40
2019-02-26T01:17:03.778Z,16.30
2019-02-26T01:18:05.483Z,14.90
2019-02-26T01:19:03.754Z,16.20
2019-02-26T01:20:05.733Z,15.10
2019-02-26T01:21:04.293Z,15.50
2019-02-26T01:22:03.723Z,15.40
2019-02-26T01:23:03.715Z,15.30
2019-02-26T01:24:04.302Z,16.40
2019-02-26T01:25:03.690Z,15.00
2019-02-26T01:26:03.678Z,15.50
2019-02-26T01:27:03.670Z,15.80
2019-02-26T01:28:03.659Z,16.00
2019-02-26T01:29:03.648Z,15.60
2019-02-26T01:30:03.640Z,15.10
2019-02-26T01:31:05.027Z,16.10
2019-02-26T01:32:03.615Z,14.80
2019-02-26T01:33:05.617Z,15.20
2019-02-26T01:34:03.593Z,15.50
2019-02-26T01:35:06.003Z,15.80
2019-02-26T01:36:03.577Z,15.90
2019-02-26T01:37:05.508Z,16.00
2019-02-26T01:38:03.551Z,15.70
2019-02-26T01:39:07.344Z,15.40
2019-02-26T01:40:07.331Z,15.60
2019-02-26T01:41:03.518Z,16.90
2019-02-26T01:42:03.518Z,15.50
2019-02-26T01:43:05.519Z,15.40
2019-02-26T01:44:03.487Z,16.70
2019-02-26T01:45:03.478Z,16.60
2019-02-26T01:46:03.467Z,16.50
2019-02-26T01:47:04.732Z,15.80
2019-02-26T01:48:04.072Z,16.30
2019-02-26T01:49:04.325Z,16.40
2019-02-26T01:50:04.170Z,16.70
2019-02-26T01:51:03.464Z,15.60
2019-02-26T01:52:03.402Z,16.00
2019-02-26T01:53:03.396Z,15.70
2019-02-26T01:54:05.188Z,15.70
2019-02-26T01:55:03.371Z,15.90
2019-02-26T01:56:05.099Z,16.10
2019-02-26T01:57:03.359Z,15.20
2019-02-26T01:58:03.344Z,16.60
2019-02-26T01:59:03.328Z,16.20
2019-02-26T02:00:06.449Z,15.70
2019-02-26T02:01:03.308Z,16.20
2019-02-26T02:02:03.297Z,16.10
2019-02-26T02:03:03.287Z,16.10
2019-02-26T02:04:03.274Z,16.20
2019-02-26T02:05:05.349Z,15.00
2019-02-26T02:06:03.253Z,15.20
2019-02-26T02:07:04.176Z,17.00
2019-02-26T02:08:03.234Z,16.80
2019-02-26T02:09:03.223Z,16.60
2019-02-26T02:10:03.318Z,15.80
2019-02-26T02:11:04.802Z,15.00
2019-02-26T02:12:04.308Z,15.50
2019-02-26T02:13:04.789Z,16.40
2019-02-26T02:14:05.760Z,15.70
2019-02-26T02:15:03.160Z,14.90
2019-02-26T02:16:04.481Z,15.90
2019-02-26T02:17:03.619Z,16.60
2019-02-26T02:18:04.161Z,16.40
2019-02-26T02:19:03.115Z,15.80
2019-02-26T02:20:05.655Z,15.80
2019-02-26T02:21:03.095Z,15.90
2019-02-26T02:22:03.087Z,16.60
2019-02-26T02:23:04.681Z,16.10
2019-02-26T02:24:03.065Z,15.90
2019-02-26T02:25:03.054Z,16.30
2019-02-26T02:26:04.390Z,16.00
2019-02-26T02:27:03.031Z,15.00
2019-02-26T02:28:04.497Z,16.00
2019-02-26T02:29:03.011Z,15.90
2019-02-26T02:30:03.001Z,16.40
2019-02-26T02:31:02.989Z,16.40
2019-02-26T02:32:05.072Z,15.40
2019-02-26T02:33:02.969Z,16.70
2019-02-26T02:34:02.961Z,16.50
2019-02-26T02:35:06.703Z,15.90
2019-02-26T02:36:02.939Z,16.70
2019-02-26T02:37:02.929Z,16.40
2019-02-26T02:38:04.885Z,16.10
2019-02-26T02:39:02.914Z,16.40
2019-02-26T02:40:02.899Z,16.50
2019-02-26T02:41:02.892Z,17.20
2019-02-26T02:42:02.876Z,16.20
2019-02-26T02:43:04.543Z,17.10
2019-02-26T02:44:02.861Z,17.80
2019-02-26T02:45:05.169Z,17.00
2019-02-26T02:46:02.834Z,16.90
2019-02-26T02:47:04.259Z,15.60
2019-02-26T02:48:03.316Z,16.50
2019-02-26T02:49:04.591Z,17.40
2019-02-26T02:50:03.158Z,16.70
2019-02-26T02:51:05.340Z,16.80
2019-02-26T02:52:04.199Z,17.90
2019-02-26T02:53:04.024Z,17.10
2019-02-26T02:54:02.748Z,17.50
2019-02-26T02:55:04.477Z,17.10
2019-02-26T02:56:03.726Z,16.80
2019-02-26T02:57:04.857Z,18.80
2019-02-26T02:58:02.707Z,17.60
2019-02-26T02:59:03.552Z,18.40
2019-02-26T03:00:05.120Z,16.80
2019-02-26T03:01:02.676Z,17.70
2019-02-26T03:02:02.665Z,18.60
2019-02-26T03:03:02.654Z,18.60
2019-02-26T03:04:02.644Z,17.50
2019-02-26T03:05:02.638Z,16.90
2019-02-26T03:06:06.518Z,17.50
2019-02-26T03:07:03.052Z,17.60
2019-02-26T03:08:02.603Z,18.00
2019-02-26T03:09:02.593Z,17.30
2019-02-26T03:10:04.526Z,17.50
2019-02-26T03:11:02.569Z,17.90
2019-02-26T03:12:02.561Z,17.40
2019-02-26T03:13:02.991Z,18.10
2019-02-26T03:14:02.539Z,17.60
2019-02-26T03:15:04.843Z,17.60
2019-02-26T03:16:02.520Z,18.30
2019-02-26T03:17:02.517Z,19.00
2019-02-26T03:18:04.126Z,18.80
2019-02-26T03:19:04.152Z,19.30
2019-02-26T03:20:04.833Z,20.00
2019-02-26T03:21:04.781Z,20.00
2019-02-26T03:22:02.456Z,20.40
2019-02-26T03:23:04.585Z,19.80
2019-02-26T03:24:03.340Z,21.20
2019-02-26T03:25:02.580Z,20.70
2019-02-26T03:26:02.410Z,19.40
2019-02-26T03:27:02.403Z,19.90
2019-02-26T03:28:02.389Z,20.40
2019-02-26T03:29:02.388Z,21.50
2019-02-26T03:30:02.375Z,20.00
2019-02-26T03:31:02.376Z,21.50
2019-02-26T03:32:02.362Z,21.10
2019-02-26T03:33:04.398Z,20.40
2019-02-26T03:34:08.673Z,21.90
2019-02-26T03:35:07.108Z,21.80
2019-02-26T03:36:05.469Z,21.70
2019-02-26T03:37:03.832Z,23.10
2019-02-26T03:38:03.613Z,21.00
2019-02-26T03:39:02.872Z,23.00
2019-02-26T03:40:03.656Z,22.10
2019-02-26T03:41:03.676Z,23.00
2019-02-26T03:42:02.241Z,21.80
2019-02-26T03:43:04.534Z,22.90
2019-02-26T03:44:03.304Z,21.60
2019-02-26T03:45:02.943Z,22.40
2019-02-26T03:46:02.203Z,21.10
2019-02-26T03:47:02.188Z,21.70
2019-02-26T03:48:02.183Z,22.50
2019-02-26T03:49:02.724Z,21.80
2019-02-26T03:50:02.164Z,21.80
2019-02-26T03:51:02.147Z,21.40
2019-02-26T03:52:02.138Z,22.20
2019-02-26T03:53:02.126Z,21.90
2019-02-26T03:54:02.115Z,22.30
2019-02-26T03:55:03.364Z,22.40
2019-02-26T03:56:04.480Z,21.40
2019-02-26T03:57:03.082Z,21.30
2019-02-26T03:58:02.328Z,21.10
2019-02-26T03:59:05.729Z,21.60
2019-02-26T04:00:05.616Z,21.70
2019-02-26T04:01:07.301Z,21.50
2019-02-26T04:02:03.029Z,21.10
2019-02-26T04:03:03.491Z,21.00
2019-02-26T04:04:02.897Z,21.20
2019-02-26T04:05:02.842Z,19.50
2019-02-26T04:06:03.121Z,21.50
2019-02-26T04:07:04.299Z,21.20
2019-02-26T04:08:04.250Z,20.70
2019-02-26T04:09:01.956Z,21.10
2019-02-26T04:10:01.944Z,21.00
2019-02-26T04:11:02.074Z,20.30
2019-02-26T04:12:01.924Z,20.50
2019-02-26T04:13:01.914Z,20.50
2019-02-26T04:14:01.910Z,21.10
2019-02-26T04:15:01.894Z,20.10
2019-02-26T04:16:04.517Z,21.50
2019-02-26T04:17:04.116Z,21.90
2019-02-26T04:18:01.862Z,21.00
2019-02-26T04:19:01.849Z,21.10
2019-02-26T04:20:02.727Z,21.10
2019-02-26T04:21:05.720Z,20.30
2019-02-26T04:22:01.819Z,20.90
2019-02-26T04:23:01.810Z,21.50
2019-02-26T04:24:03.577Z,21.40
2019-02-26T04:25:06.326Z,20.50
2019-02-26T04:26:02.765Z,21.00
2019-02-26T04:27:01.759Z,21.00
2019-02-26T04:28:04.587Z,20.40
2019-02-26T04:29:01.740Z,20.70
2019-02-26T04:30:01.726Z,21.00
2019-02-26T04:31:02.849Z,20.00
2019-02-26T04:32:01.705Z,19.50
2019-02-26T04:33:03.973Z,19.80
2019-02-26T04:34:05.100Z,20.00
2019-02-26T04:35:02.961Z,19.80
2019-02-26T04:36:01.663Z,20.80
2019-02-26T04:37:04.641Z,20.60
2019-02-26T04:38:03.446Z,20.50
2019-02-26T04:39:01.629Z,20.80
2019-02-26T04:40:04.869Z,19.50
2019-02-26T04:41:05.556Z,21.50
2019-02-26T04:42:03.305Z,20.70
2019-02-26T04:43:02.656Z,20.00
2019-02-26T04:44:03.806Z,20.60
2019-02-26T04:45:04.926Z,20.40
2019-02-26T04:46:05.046Z,21.10
2019-02-26T04:47:03.505Z,19.30
2019-02-26T04:48:01.552Z,20.00
2019-02-26T04:49:01.526Z,20.20
2019-02-26T04:50:05.485Z,19.70
2019-02-26T04:51:01.503Z,21.70
2019-02-26T04:52:02.982Z,20.70
2019-02-26T04:53:04.446Z,20.40
2019-02-26T04:54:02.110Z,19.80
2019-02-26T04:55:01.463Z,20.80
2019-02-26T04:56:03.035Z,20.90
2019-02-26T04:57:01.439Z,20.90
2019-02-26T04:58:01.431Z,20.00
2019-02-26T04:59:03.469Z,19.20
2019-02-26T05:00:04.599Z,19.50
2019-02-26T05:01:01.399Z,19.30
2019-02-26T05:02:01.384Z,19.80
2019-02-26T05:03:01.375Z,21.30
2019-02-26T05:04:01.364Z,19.80
2019-02-26T05:05:01.359Z,20.30
2019-02-26T05:06:03.047Z,20.30
2019-02-26T05:07:04.400Z,19.90
2019-02-26T05:08:04.049Z,20.40
2019-02-26T05:09:02.850Z,20.20
2019-02-26T05:10:02.290Z,20.30
2019-02-26T05:11:01.293Z,20.10
2019-02-26T05:12:01.279Z,19.10
2019-02-26T05:13:03.937Z,19.60
2019-02-26T05:14:02.256Z,19.90
2019-02-26T05:15:01.254Z,19.50
2019-02-26T05:16:01.242Z,20.40
2019-02-26T05:17:01.226Z,18.90
2019-02-26T05:18:01.215Z,20.50
2019-02-26T05:19:01.218Z,19.90
2019-02-26T05:20:03.518Z,18.80
2019-02-26T05:21:02.763Z,20.40
2019-02-26T05:22:01.601Z,19.80
2019-02-26T05:23:03.104Z,19.80
2019-02-26T05:24:02.950Z,19.80
2019-02-26T05:25:01.144Z,19.70
2019-02-26T05:26:05.153Z,19.70
2019-02-26T05:27:02.122Z,19.00
2019-02-26T05:28:03.672Z,19.90
2019-02-26T05:29:01.098Z,19.90
2019-02-26T05:30:01.090Z,19.80
2019-02-26T05:31:03.449Z,19.40
2019-02-26T05:32:04.000Z,19.90
2019-02-26T05:33:03.026Z,20.30
2019-02-26T05:34:01.046Z,19.90
2019-02-26T05:35:01.036Z,20.90
2019-02-26T05:36:01.025Z,19.30
2019-02-26T05:37:02.357Z,19.90
2019-02-26T05:38:03.633Z,19.70
2019-02-26T05:39:02.339Z,20.10
2019-02-26T05:40:00.983Z,20.60
2019-02-26T05:41:00.971Z,20.00
2019-02-26T05:42:03.217Z,19.50
2019-02-26T05:43:01.848Z,20.00
2019-02-26T05:44:03.910Z,20.00
2019-02-26T05:45:05.370Z,20.30
2019-02-26T05:46:04.005Z,21.00
2019-02-26T05:47:01.631Z,20.30
2019-02-26T05:48:00.899Z,20.10
2019-02-26T05:49:02.904Z,20.90
2019-02-26T05:50:02.480Z,20.20
2019-02-26T05:51:02.950Z,20.60
2019-02-26T05:52:01.742Z,20.40
2019-02-26T05:53:01.888Z,20.00
2019-02-26T05:54:02.130Z,21.40
2019-02-26T05:55:00.833Z,20.60
2019-02-26T05:56:00.813Z,20.40
2019-02-26T05:57:01.854Z,19.70
2019-02-26T05:58:00.791Z,21.00
2019-02-26T05:59:04.366Z,20.40
2019-02-26T06:00:01.768Z,19.90
2019-02-26T06:01:00.762Z,20.30
2019-02-26T06:02:00.769Z,20.20
2019-02-26T06:03:00.737Z,21.10
2019-02-26T06:04:00.728Z,20.40
2019-02-26T06:05:00.716Z,20.30
2019-02-26T06:06:00.749Z,20.10
2019-02-26T06:07:02.209Z,19.50
2019-02-26T06:08:00.684Z,19.40
2019-02-26T06:09:02.916Z,20.90
2019-02-26T06:10:00.662Z,20.20
2019-02-26T06:11:00.654Z,20.20
2019-02-26T06:12:00.643Z,20.30
2019-02-26T06:13:02.271Z,20.90
2019-02-26T06:14:06.406Z,19.70
2019-02-26T06:15:04.971Z,20.70
2019-02-26T06:16:02.290Z,20.00
2019-02-26T06:17:00.588Z,20.80
2019-02-26T06:18:00.589Z,20.70
2019-02-26T06:19:00.568Z,19.80
2019-02-26T06:20:02.609Z,21.20
2019-02-26T06:21:01.204Z,20.70
2019-02-26T06:22:00.538Z,19.50
2019-02-26T06:23:00.524Z,20.70
2019-02-26T06:24:00.519Z,20.30
2019-02-26T06:25:06.983Z,19.80
2019-02-26T06:26:04.915Z,21.30
2019-02-26T06:27:01.482Z,20.60
2019-02-26T06:28:04.474Z,19.90
2019-02-26T06:29:01.465Z,20.70
2019-02-26T06:30:03.179Z,21.20
2019-02-26T06:31:01.439Z,20.80
2019-02-26T06:32:00.959Z,20.90
2019-02-26T06:33:04.141Z,20.50
2019-02-26T06:34:03.539Z,20.90
2019-02-26T06:35:01.395Z,21.30
2019-02-26T06:36:01.749Z,19.70
2019-02-26T06:37:00.379Z,21.10
2019-02-26T06:38:02.093Z,20.20
2019-02-26T06:39:01.533Z,20.20
2019-02-26T06:40:02.537Z,21.30
2019-02-26T06:41:00.333Z,20.30
2019-02-26T06:42:00.324Z,20.70
2019-02-26T06:43:00.313Z,21.60
2019-02-26T06:44:00.301Z,21.10
2019-02-26T06:45:00.351Z,21.00
2019-02-26T06:46:02.570Z,20.40
2019-02-26T06:47:02.112Z,20.70
2019-02-26T06:48:00.261Z,21.50
2019-02-26T06:49:00.247Z,20.90
2019-02-26T06:50:00.263Z,21.00
2019-02-26T06:51:02.179Z,22.50
2019-02-26T06:52:00.224Z,20.70
2019-02-26T06:53:00.208Z,21.70
2019-02-26T06:54:01.058Z,21.20
2019-02-26T06:55:02.892Z,20.70
2019-02-26T06:56:00.841Z,20.70
2019-02-26T06:57:00.163Z,21.10
2019-02-26T06:58:00.154Z,21.50
2019-02-26T06:59:00.744Z,21.90
2019-02-26T07:00:01.143Z,20.90
2019-02-26T07:01:00.122Z,20.80
2019-02-26T07:02:00.113Z,21.70
2019-02-26T07:03:02.234Z,21.20
2019-02-26T07:04:00.092Z,21.40
2019-02-26T07:05:00.110Z,21.50
2019-02-26T07:06:03.204Z,22.00
2019-02-26T07:07:02.024Z,20.80
2019-02-26T07:08:02.062Z,21.10
2019-02-26T07:09:00.036Z,22.40
2019-02-26T07:10:00.025Z,22.10
2019-02-26T07:11:00.015Z,21.30
2019-02-26T07:12:00.011Z,21.90
2019-02-26T07:13:02.034Z,21.90
2019-02-26T07:14:01.316Z,21.40
2019-02-26T07:14:59.973Z,22.10
2019-02-26T07:15:59.964Z,22.90
2019-02-26T07:16:59.952Z,21.10
2019-02-26T07:18:02.151Z,21.70
2019-02-26T07:19:01.229Z,21.30
2019-02-26T07:20:00.815Z,21.50
2019-02-26T07:21:00.241Z,20.90
2019-02-26T07:21:59.903Z,21.10
2019-02-26T07:22:59.890Z,22.00
2019-02-26T07:24:01.188Z,21.50
2019-02-26T07:24:59.869Z,21.90
2019-02-26T07:25:59.856Z,21.80
2019-02-26T07:27:01.973Z,21.80
2019-02-26T07:28:01.104Z,21.40
2019-02-26T07:28:59.839Z,21.90
2019-02-26T07:29:59.815Z,22.00
2019-02-26T07:31:00.480Z,22.90
2019-02-26T07:31:59.791Z,21.80
2019-02-26T07:32:59.783Z,22.80
2019-02-26T07:34:01.369Z,22.80
2019-02-26T07:34:59.955Z,22.20
2019-02-26T07:36:01.771Z,21.60
2019-02-26T07:36:59.737Z,22.60
2019-02-26T07:38:01.320Z,23.00
2019-02-26T07:38:59.715Z,22.60
2019-02-26T07:39:59.704Z,22.40
2019-02-26T07:41:01.926Z,22.90
2019-02-26T07:41:59.695Z,22.10
2019-02-26T07:42:59.675Z,23.90
2019-02-26T07:44:00.084Z,23.30
2019-02-26T07:44:59.652Z,24.40
2019-02-26T07:45:59.642Z,23.80
2019-02-26T07:47:00.889Z,22.90
2019-02-26T07:48:01.022Z,23.20
2019-02-26T07:49:01.910Z,22.80
2019-02-26T07:50:01.677Z,23.90
2019-02-26T07:50:59.589Z,24.70
2019-02-26T07:52:00.348Z,23.80
2019-02-26T07:52:59.568Z,24.80
2019-02-26T07:54:00.740Z,24.70
2019-02-26T07:54:59.544Z,25.40
2019-02-26T07:56:01.235Z,25.00
2019-02-26T07:57:02.092Z,24.90
2019-02-26T07:57:59.514Z,26.20
2019-02-26T07:59:02.067Z,24.10
2019-02-26T07:59:59.492Z,24.70
2019-02-26T08:00:59.482Z,23.80
2019-02-26T08:02:01.252Z,24.30
2019-02-26T08:03:00.206Z,23.70
2019-02-26T08:03:59.448Z,23.90
2019-02-26T08:04:59.438Z,24.10
2019-02-26T08:06:04.110Z,24.40
2019-02-26T08:07:01.885Z,23.30
2019-02-26T08:07:59.408Z,24.30
2019-02-26T08:08:59.397Z,25.30
2019-02-26T08:09:59.384Z,23.40
2019-02-26T08:10:59.376Z,24.60
2019-02-26T08:11:59.370Z,24.40
2019-02-26T08:13:01.154Z,25.00
2019-02-26T08:14:01.476Z,25.60
2019-02-26T08:14:59.331Z,24.90
2019-02-26T08:16:00.106Z,25.10
2019-02-26T08:17:01.299Z,25.20
2019-02-26T08:18:01.278Z,25.40
2019-02-26T08:19:01.337Z,24.70
2019-02-26T08:20:01.622Z,26.60
2019-02-26T08:21:00.748Z,24.80
2019-02-26T08:21:59.256Z,26.50
2019-02-26T08:23:01.223Z,25.40
2019-02-26T08:23:59.236Z,24.80
2019-02-26T08:24:59.222Z,24.70
2019-02-26T08:26:00.475Z,24.60
2019-02-26T08:27:00.908Z,25.50
2019-02-26T08:28:01.198Z,25.80
2019-02-26T08:29:00.251Z,26.50
2019-02-26T08:30:00.934Z,26.00
2019-02-26T08:30:59.158Z,26.70
2019-02-26T08:31:59.681Z,26.90
2019-02-26T08:33:02.014Z,26.00
2019-02-26T08:34:00.122Z,26.10
2019-02-26T08:34:59.976Z,26.30
2019-02-26T08:35:59.104Z,25.70
2019-02-26T08:36:59.097Z,26.20
2019-02-26T08:37:59.080Z,26.00
2019-02-26T08:38:59.073Z,26.40
2019-02-26T08:39:59.078Z,25.90
2019-02-26T08:40:59.050Z,25.50
2019-02-26T08:41:59.040Z,25.90
2019-02-26T08:42:59.028Z,25.10
2019-02-26T08:43:59.038Z,25.50
2019-02-26T08:44:59.008Z,26.30
2019-02-26T08:45:58.995Z,25.20
2019-02-26T08:46:58.985Z,25.40
2019-02-26T08:47:58.975Z,25.60
2019-02-26T08:49:07.878Z,26.10
2019-02-26T08:50:01.675Z,26.70
2019-02-26T08:51:03.048Z,26.10
2019-02-26T08:51:59.932Z,26.40
2019-02-26T08:52:58.919Z,25.90
2019-02-26T08:53:58.910Z,26.00
2019-02-26T08:54:58.900Z,26.10
2019-02-26T08:56:01.414Z,27.40
2019-02-26T08:56:58.880Z,27.00
2019-02-26T08:57:58.867Z,26.80
2019-02-26T08:59:00.790Z,27.40
2019-02-26T08:59:58.846Z,27.10
2019-02-26T09:00:58.835Z,27.40
2019-02-26T09:01:58.827Z,27.00
2019-02-26T09:02:58.814Z,27.60
2019-02-26T09:04:00.710Z,28.20
2019-02-26T09:04:59.367Z,27.10
2019-02-26T09:06:10.970Z,27.10
2019-02-26T09:07:01.952Z,27.80
2019-02-26T09:07:58.758Z,27.20
2019-02-26T09:09:00.193Z,26.20
2019-02-26T09:09:58.737Z,26.90
2019-02-26T09:11:00.726Z,26.30
2019-02-26T09:12:00.618Z,25.90
2019-02-26T09:12:58.705Z,25.60
2019-02-26T09:13:59.571Z,26.20
2019-02-26T09:14:58.683Z,26.20
2019-02-26T09:16:00.619Z,25.70
2019-02-26T09:16:59.704Z,27.10
2019-02-26T09:17:58.653Z,26.60
2019-02-26T09:18:58.643Z,26.40
2019-02-26T09:20:08.475Z,26.70
2019-02-26T09:20:59.618Z,26.50
2019-02-26T09:21:58.609Z,26.60
2019-02-26T09:22:59.643Z,25.40
2019-02-26T09:24:00.024Z,26.10
2019-02-26T09:24:59.873Z,26.60
2019-02-26T09:26:00.373Z,26.40
2019-02-26T09:27:00.459Z,25.80
2019-02-26T09:27:58.544Z,26.50
2019-02-26T09:28:58.538Z,27.40
2019-02-26T09:29:58.522Z,25.80
2019-02-26T09:31:01.179Z,25.40
2019-02-26T09:31:59.502Z,26.80
2019-02-26T09:33:00.609Z,25.90
2019-02-26T09:33:58.481Z,25.80
2019-02-26T09:34:59.190Z,26.50
2019-02-26T09:35:58.459Z,24.90
2019-02-26T09:37:00.507Z,25.70
2019-02-26T09:38:00.798Z,25.50
2019-02-26T09:38:58.428Z,26.00
2019-02-26T09:39:59.241Z,26.10
2019-02-26T09:40:58.410Z,26.20
2019-02-26T09:41:59.413Z,25.10
2019-02-26T09:43:00.110Z,27.20
2019-02-26T09:43:59.374Z,26.80
2019-02-26T09:45:00.204Z,27.30
2019-02-26T09:45:58.350Z,26.30
2019-02-26T09:47:00.098Z,26.50
2019-02-26T09:47:58.387Z,26.30
2019-02-26T09:49:00.337Z,26.70
2019-02-26T09:49:58.499Z,25.80
2019-02-26T09:50:58.299Z,25.60
2019-02-26T09:51:59.045Z,25.30
2019-02-26T09:52:59.295Z,26.00
2019-02-26T09:53:58.985Z,25.70
2019-02-26T09:54:58.254Z,25.10
2019-02-26T09:55:58.247Z,25.50
2019-02-26T09:56:58.236Z,25.50
2019-02-26T09:57:58.223Z,25.70
2019-02-26T09:58:58.213Z,26.10
2019-02-26T10:00:00.215Z,26.20
2019-02-26T10:00:58.192Z,25.90
2019-02-26T10:01:58.950Z,26.20
2019-02-26T10:02:58.169Z,26.50
2019-02-26T10:03:58.367Z,26.40
2019-02-26T10:04:58.148Z,27.30
2019-02-26T10:05:58.138Z,27.20
2019-02-26T10:06:58.128Z,27.10
2019-02-26T10:08:00.493Z,26.60
2019-02-26T10:08:58.106Z,27.90
2019-02-26T10:09:59.846Z,27.10
2019-02-26T10:11:00.324Z,26.20
2019-02-26T10:11:58.074Z,28.20
2019-02-26T10:12:59.941Z,27.40
2019-02-26T10:13:58.050Z,27.30
2019-02-26T10:15:00.162Z,27.60
2019-02-26T10:15:59.235Z,27.20
2019-02-26T10:16:58.019Z,28.50
2019-02-26T10:18:00.870Z,27.20
2019-02-26T10:18:57.996Z,27.30
2019-02-26T10:19:59.370Z,27.80
2019-02-26T10:20:57.984Z,28.00
2019-02-26T10:22:00.118Z,26.40
2019-02-26T10:23:00.657Z,27.20
2019-02-26T10:23:59.455Z,27.00
2019-02-26T10:24:57.956Z,26.80
2019-02-26T10:26:00.209Z,27.70
2019-02-26T10:27:00.784Z,26.90
2019-02-26T10:28:03.009Z,27.30
2019-02-26T10:29:04.212Z,26.60
2019-02-26T10:29:58.873Z,28.00
2019-02-26T10:31:01.792Z,27.00
2019-02-26T10:31:58.853Z,28.00
2019-02-26T10:33:01.828Z,26.80
2019-02-26T10:33:57.832Z,27.60
2019-02-26T10:34:57.819Z,27.10
2019-02-26T10:35:57.810Z,26.60
2019-02-26T10:36:57.797Z,26.90
2019-02-26T10:38:00.347Z,27.60
2019-02-26T10:39:00.225Z,26.70
2019-02-26T10:39:57.769Z,25.90
2019-02-26T10:40:59.722Z,27.40
2019-02-26T10:42:01.971Z,27.10
2019-02-26T10:42:57.735Z,27.50
2019-02-26T10:43:57.728Z,28.00
2019-02-26T10:44:57.720Z,26.70
2019-02-26T10:45:57.703Z,27.10
2019-02-26T10:46:58.352Z,27.00
2019-02-26T10:47:59.358Z,28.00
2019-02-26T10:48:57.671Z,27.70
2019-02-26T10:49:57.665Z,27.00
2019-02-26T10:50:57.648Z,27.20
2019-02-26T10:51:58.565Z,27.20
2019-02-26T10:53:06.509Z,27.50
2019-02-26T10:53:59.970Z,26.70
2019-02-26T10:54:57.608Z,26.60
2019-02-26T10:55:57.601Z,26.30
2019-02-26T10:57:00.145Z,26.30
2019-02-26T10:57:58.669Z,26.50
2019-02-26T10:59:02.762Z,26.00
2019-02-26T10:59:59.635Z,26.20
2019-02-26T11:00:59.415Z,26.20
2019-02-26T11:01:58.433Z,26.20
2019-02-26T11:02:57.518Z,27.20
2019-02-26T11:03:57.508Z,26.20
2019-02-26T11:04:57.495Z,25.90
2019-02-26T11:05:57.489Z,26.00
2019-02-26T11:06:59.357Z,25.20
2019-02-26T11:07:59.724Z,26.20
2019-02-26T11:09:01.105Z,26.20
2019-02-26T11:09:58.868Z,26.30
2019-02-26T11:10:57.435Z,26.00
2019-02-26T11:11:58.419Z,25.60
2019-02-26T11:12:59.388Z,25.60
2019-02-26T11:13:57.401Z,27.20
2019-02-26T11:14:58.555Z,28.00
2019-02-26T11:15:59.818Z,27.70
2019-02-26T11:16:58.368Z,27.00
2019-02-26T11:17:57.381Z,27.50
2019-02-26T11:18:59.237Z,28.20
2019-02-26T11:19:58.627Z,26.90
2019-02-26T11:20:59.207Z,27.60
2019-02-26T11:21:58.699Z,28.10
2019-02-26T11:22:57.303Z,27.80
2019-02-26T11:23:58.481Z,27.40
2019-02-26T11:24:58.628Z,27.80
2019-02-26T11:25:57.270Z,27.70
2019-02-26T11:26:57.264Z,28.20
2019-02-26T11:27:57.255Z,28.20
2019-02-26T11:28:57.238Z,27.30
2019-02-26T11:29:59.500Z,26.90
2019-02-26T11:30:57.217Z,27.30
2019-02-26T11:31:57.205Z,26.70
2019-02-26T11:33:02.046Z,26.10
2019-02-26T11:34:00.997Z,26.90
2019-02-26T11:35:01.808Z,26.80
2019-02-26T11:35:57.165Z,26.70
2019-02-26T11:36:58.485Z,26.90
2019-02-26T11:37:58.084Z,26.10
2019-02-26T11:38:59.203Z,26.10
2019-02-26T11:39:57.696Z,27.00
2019-02-26T11:40:57.110Z,26.70
2019-02-26T11:41:59.514Z,27.40
2019-02-26T11:42:59.638Z,27.20
2019-02-26T11:43:57.076Z,26.30
2019-02-26T11:44:57.065Z,26.60
2019-02-26T11:45:59.180Z,26.00
2019-02-26T11:46:57.114Z,26.50
2019-02-26T11:47:58.088Z,26.10
2019-02-26T11:48:57.563Z,26.10
2019-02-26T11:49:57.011Z,25.90
2019-02-26T11:51:00.806Z,26.40
2019-02-26T11:51:57.004Z,25.90
2019-02-26T11:52:56.982Z,25.50
2019-02-26T11:53:56.969Z,26.80
2019-02-26T11:54:58.728Z,26.20
2019-02-26T11:55:59.156Z,27.10
2019-02-26T11:56:56.939Z,25.50
2019-02-26T11:57:56.965Z,25.60
2019-02-26T11:58:56.918Z,25.90
2019-02-26T11:59:57.541Z,25.90
2019-02-26T12:00:57.426Z,26.20
2019-02-26T12:01:58.945Z,26.30
2019-02-26T12:02:56.873Z,25.20
2019-02-26T12:04:03.197Z,26.40
2019-02-26T12:04:59.895Z,25.20
2019-02-26T12:06:00.551Z,26.10
2019-02-26T12:06:58.512Z,26.20
2019-02-26T12:07:58.692Z,26.80
2019-02-26T12:08:56.807Z,25.50
2019-02-26T12:09:57.873Z,26.40
2019-02-26T12:11:01.104Z,26.50
2019-02-26T12:11:58.505Z,25.80
2019-02-26T12:12:59.397Z,25.20
2019-02-26T12:13:56.754Z,25.30
2019-02-26T12:14:56.743Z,25.70
2019-02-26T12:15:56.733Z,25.20
2019-02-26T12:16:56.720Z,25.70
2019-02-26T12:17:58.648Z,25.20
2019-02-26T12:18:58.906Z,26.60
2019-02-26T12:19:57.961Z,27.10
2019-02-26T12:20:56.681Z,26.80
2019-02-26T12:21:57.462Z,27.60
2019-02-26T12:22:56.658Z,27.50
2019-02-26T12:23:58.019Z,26.40
2019-02-26T12:24:58.766Z,25.90
2019-02-26T12:25:59.281Z,26.40
2019-02-26T12:26:56.614Z,27.30
2019-02-26T12:27:56.603Z,26.80
2019-02-26T12:28:57.352Z,25.10
2019-02-26T12:29:56.581Z,25.90
2019-02-26T12:30:58.387Z,26.70
2019-02-26T12:31:58.244Z,25.60
2019-02-26T12:32:56.549Z,25.30
2019-02-26T12:33:56.538Z,25.30
2019-02-26T12:34:56.527Z,24.30
2019-02-26T12:35:59.496Z,24.40
2019-02-26T12:37:00.461Z,24.20
2019-02-26T12:38:01.297Z,25.40
2019-02-26T12:38:59.970Z,24.40
2019-02-26T12:39:57.932Z,24.70
2019-02-26T12:40:56.463Z,24.80
2019-02-26T12:41:56.451Z,25.40
2019-02-26T12:42:56.440Z,24.80
2019-02-26T12:43:59.365Z,24.20
2019-02-26T12:44:57.539Z,24.90
2019-02-26T12:45:58.964Z,25.80
2019-02-26T12:46:57.558Z,25.40
2019-02-26T12:47:56.388Z,24.00
2019-02-26T12:48:56.377Z,24.60
2019-02-26T12:49:58.555Z,24.60
2019-02-26T12:50:58.385Z,23.60
2019-02-26T12:51:57.640Z,24.60